Time;durP1;ratioP1;P1;durP2;ratioP2;P2;SDS_P1;SDS_P2;PMS_P1;PMS_P2;Temp;Humidity;BMP_temperature;BMP_pressure;BME280_temperature;BME280_humidity;BME280_pressure;Samples;Min_cycle;Max_cycle;Signal;HPM_P1;HPM_P2
2022/04/08 00:01:29;;;;;;;11.48;1.70;;;7.10;99.90;;;;;;5015154;28;20044;-75
2022/04/08 00:03:55;;;;;;;10.65;1.60;;;7.10;99.90;;;;;;5015076;28;20022;-73
2022/04/08 00:06:22;;;;;;;9.38;1.58;;;7.00;99.90;;;;;;5013333;28;20513;-75
2022/04/08 00:08:51;;;;;;;7.68;1.23;;;7.00;99.90;;;;;;5014463;28;20046;-74
2022/04/08 00:11:16;;;;;;;10.38;1.40;;;7.00;99.90;;;;;;5014792;28;20021;-74
2022/04/08 00:13:42;;;;;;;8.93;1.35;;;7.00;99.90;;;;;;5014735;28;20387;-74
2022/04/08 00:16:08;;;;;;;13.32;1.92;;;7.00;99.90;;;;;;5014887;28;20036;-74
2022/04/08 00:18:35;;;;;;;15.68;2.10;;;6.90;99.90;;;;;;5015376;28;20057;-74
2022/04/08 00:21:01;;;;;;;15.07;1.52;;;7.00;99.90;;;;;;5015712;28;20395;-73
2022/04/08 00:23:27;;;;;;;12.13;1.63;;;6.90;99.90;;;;;;5014759;28;20018;-74
2022/04/08 00:25:53;;;;;;;14.13;1.85;;;6.90;99.90;;;;;;5014856;28;20172;-74
2022/04/08 00:28:18;;;;;;;13.93;1.85;;;7.00;99.90;;;;;;5014332;28;20542;-74
2022/04/08 00:30:44;;;;;;;14.15;1.67;;;7.00;99.90;;;;;;5014171;28;20138;-74
2022/04/08 00:33:09;;;;;;;13.40;2.05;;;7.00;99.90;;;;;;5014267;28;20018;-74
2022/04/08 00:35:35;;;;;;;11.48;1.67;;;6.90;99.90;;;;;;5013612;28;20506;-74
2022/04/08 00:38:00;;;;;;;10.48;1.67;;;6.90;99.90;;;;;;5013966;28;20030;-74
2022/04/08 00:40:26;;;;;;;17.50;2.25;;;6.90;99.90;;;;;;5014336;28;20022;-74
2022/04/08 00:42:51;;;;;;;14.13;1.95;;;6.90;99.90;;;;;;5033655;28;20030;-75
2022/04/08 00:45:17;;;;;;;11.18;1.90;;;6.90;99.90;;;;;;5037219;28;20092;-75
2022/04/08 00:47:44;;;;;;;10.43;2.35;;;6.90;99.90;;;;;;5027822;28;20026;-74
2022/04/08 00:50:11;;;;;;;19.88;2.35;;;6.90;99.90;;;;;;5013938;28;20475;-75
2022/04/08 00:52:39;;;;;;;10.52;2.33;;;6.90;99.90;;;;;;5012603;28;20036;-75
2022/04/08 00:55:06;;;;;;;19.67;2.22;;;6.90;99.90;;;;;;5013896;28;20033;-75
2022/04/08 00:57:32;;;;;;;16.13;2.30;;;6.90;99.90;;;;;;5014013;28;20022;-75
2022/04/08 01:00:01;;;;;;;18.45;2.47;;;6.80;99.90;;;;;;5014171;28;20029;-75
2022/04/08 01:02:28;;;;;;;14.45;2.22;;;6.80;99.90;;;;;;5015599;28;20050;-73
2022/04/08 01:04:54;;;;;;;18.70;2.85;;;6.80;99.90;;;;;;5014321;28;20088;-75
2022/04/08 01:07:20;;;;;;;20.63;2.60;;;6.80;99.90;;;;;;5013989;28;20427;-74
2022/04/08 01:09:45;;;;;;;23.70;3.00;;;6.80;99.90;;;;;;5013261;28;20030;-76
2022/04/08 01:12:11;;;;;;;29.60;3.03;;;6.80;99.90;;;;;;5014094;28;20125;-73
2022/04/08 01:14:39;;;;;;;20.45;2.72;;;6.80;99.90;;;;;;5015969;28;20072;-74
2022/04/08 01:17:05;;;;;;;25.60;3.20;;;6.80;99.90;;;;;;5015514;28;20025;-74
2022/04/08 01:19:30;;;;;;;25.08;3.13;;;6.80;99.90;;;;;;5014463;28;20037;-74
2022/04/08 01:21:56;;;;;;;20.58;2.70;;;6.90;99.90;;;;;;5013766;28;20029;-76
2022/04/08 01:24:23;;;;;;;18.60;2.70;;;6.80;99.90;;;;;;5013720;28;20081;-74
2022/04/08 01:26:51;;;;;;;15.48;2.80;;;6.80;99.90;;;;;;5013429;28;20025;-75
2022/04/08 01:29:16;;;;;;;15.75;2.63;;;6.80;99.90;;;;;;5013549;28;20103;-74
2022/04/08 01:31:44;;;;;;;13.55;2.05;;;6.80;99.90;;;;;;5013813;28;20494;-75
2022/04/08 01:34:10;;;;;;;12.48;1.88;;;6.70;99.90;;;;;;5012651;28;20073;-74
2022/04/08 01:36:37;;;;;;;22.33;2.70;;;6.80;99.90;;;;;;5013071;28;20127;-74
2022/04/08 01:39:03;;;;;;;16.60;2.08;;;6.80;99.90;;;;;;5013723;28;20022;-75
2022/04/08 01:41:31;;;;;;;13.63;2.13;;;6.80;99.90;;;;;;5013308;28;20057;-74
2022/04/08 01:43:56;;;;;;;23.20;2.70;;;6.80;99.90;;;;;;5013042;28;20037;-75
2022/04/08 01:46:22;;;;;;;14.98;2.50;;;6.80;99.90;;;;;;5012599;28;20026;-75
2022/04/08 01:48:51;;;;;;;24.70;2.97;;;6.80;99.90;;;;;;5013300;28;20034;-74
2022/04/08 01:51:16;;;;;;;18.42;2.47;;;6.80;99.90;;;;;;5013472;28;20053;-75
2022/04/08 01:53:42;;;;;;;14.65;2.30;;;6.80;99.90;;;;;;5014058;28;20061;-74
2022/04/08 01:56:07;;;;;;;17.77;2.45;;;6.80;99.90;;;;;;5012809;28;20025;-75
2022/04/08 01:58:33;;;;;;;12.93;2.30;;;6.70;99.90;;;;;;5012876;28;20058;-74
2022/04/08 02:00:59;;;;;;;19.63;2.20;;;6.70;99.90;;;;;;5017385;28;20084;-74
2022/04/08 02:03:25;;;;;;;14.93;2.08;;;6.70;99.90;;;;;;5013336;28;20403;-74
2022/04/08 02:05:51;;;;;;;22.92;2.35;;;6.70;99.90;;;;;;5012909;28;20467;-74
2022/04/08 02:08:16;;;;;;;27.05;2.58;;;6.70;99.90;;;;;;5013002;28;20022;-74
2022/04/08 02:10:42;;;;;;;22.45;3.20;;;6.70;99.90;;;;;;5010485;28;20037;-73
2022/04/08 02:13:08;;;;;;;17.45;2.20;;;6.70;99.90;;;;;;5012777;28;20061;-73
2022/04/08 02:15:34;;;;;;;19.15;2.60;;;6.70;99.90;;;;;;5012808;28;20022;-75
2022/04/08 02:18:04;;;;;;;18.83;2.45;;;6.70;99.90;;;;;;5013152;28;20018;-73
2022/04/08 02:20:31;;;;;;;13.35;1.90;;;6.60;99.90;;;;;;5011792;28;20026;-73
2022/04/08 02:22:58;;;;;;;21.40;2.80;;;6.50;99.90;;;;;;5012607;28;20030;-73
2022/04/08 02:25:24;;;;;;;19.38;2.53;;;6.40;99.90;;;;;;5012458;28;20026;-73
2022/04/08 02:27:49;;;;;;;14.60;2.40;;;6.40;99.90;;;;;;5013453;28;20156;-74
2022/04/08 02:30:16;;;;;;;15.55;2.00;;;6.40;99.90;;;;;;5012657;28;20570;-73
2022/04/08 02:32:41;;;;;;;18.08;2.20;;;6.40;99.90;;;;;;5012087;28;20108;-73
2022/04/08 02:35:07;;;;;;;16.77;2.35;;;6.40;99.90;;;;;;5012013;28;20057;-73
2022/04/08 02:37:33;;;;;;;26.90;3.22;;;6.40;99.90;;;;;;5012709;28;20344;-73
2022/04/08 02:39:59;;;;;;;20.50;2.65;;;6.40;99.90;;;;;;5012228;28;20037;-74
2022/04/08 02:42:24;;;;;;;20.48;3.33;;;6.30;99.90;;;;;;5012177;28;20030;-74
2022/04/08 02:44:50;;;;;;;21.83;3.20;;;6.30;99.90;;;;;;5012556;28;20105;-74
2022/04/08 02:47:15;;;;;;;28.30;2.65;;;6.30;99.90;;;;;;5010390;28;20068;-73
2022/04/08 02:49:41;;;;;;;23.85;2.72;;;6.30;99.90;;;;;;5011912;28;20040;-72
2022/04/08 02:52:06;;;;;;;30.95;3.35;;;6.30;99.90;;;;;;5012094;28;20029;-73
2022/04/08 02:54:32;;;;;;;25.60;2.88;;;6.30;99.90;;;;;;5011834;28;20558;-73
2022/04/08 02:56:57;;;;;;;27.67;3.33;;;6.30;99.90;;;;;;5011754;28;20478;-74
2022/04/08 02:59:23;;;;;;;22.10;2.95;;;6.30;99.90;;;;;;5011347;28;20064;-73
2022/04/08 03:01:49;;;;;;;26.08;3.55;;;6.30;99.90;;;;;;5012141;28;20110;-74
2022/04/08 03:04:14;;;;;;;22.25;2.92;;;6.40;99.90;;;;;;5013781;28;20100;-74
2022/04/08 03:06:40;;;;;;;19.52;3.03;;;6.40;99.90;;;;;;5012413;28;20393;-73
2022/04/08 03:09:06;;;;;;;26.50;2.90;;;6.40;99.90;;;;;;5012011;28;20449;-74
2022/04/08 03:11:34;;;;;;;26.45;3.10;;;6.30;99.90;;;;;;5012354;28;20032;-74
2022/04/08 03:14:02;;;;;;;22.13;3.38;;;6.40;99.90;;;;;;5012461;28;20041;-75
2022/04/08 03:16:28;;;;;;;43.63;6.10;;;6.30;99.90;;;;;;5011125;28;20382;-75
2022/04/08 03:18:53;;;;;;;28.10;2.95;;;6.40;99.90;;;;;;5013385;28;20051;-74
2022/04/08 03:21:19;;;;;;;35.63;4.30;;;6.40;99.90;;;;;;5019686;28;20564;-74
2022/04/08 03:23:45;;;;;;;23.52;2.95;;;6.40;99.90;;;;;;5014686;28;20438;-74
2022/04/08 03:26:11;;;;;;;29.23;2.95;;;6.30;99.90;;;;;;5013624;28;20056;-73
2022/04/08 03:28:36;;;;;;;29.85;3.20;;;6.40;99.90;;;;;;5013996;28;20084;-73
2022/04/08 03:31:02;;;;;;;35.15;3.58;;;6.40;99.90;;;;;;5014333;28;20026;-73
2022/04/08 03:33:29;;;;;;;27.85;2.88;;;6.40;99.90;;;;;;5017187;28;20018;-74
2022/04/08 03:35:54;;;;;;;24.80;3.33;;;6.40;99.90;;;;;;5020399;28;20041;-75
2022/04/08 03:38:20;;;;;;;27.52;3.35;;;6.40;99.90;;;;;;5020864;28;20030;-75
2022/04/08 03:40:47;;;;;;;26.13;3.83;;;6.40;99.90;;;;;;5020672;28;20026;-75
2022/04/08 03:43:12;;;;;;;32.53;4.50;;;6.40;99.90;;;;;;5016419;28;20133;-74
2022/04/08 03:45:38;;;;;;;35.63;3.70;;;6.40;99.90;;;;;;5015876;28;20058;-75
2022/04/08 03:48:03;;;;;;;49.97;4.53;;;6.50;99.90;;;;;;5015902;28;20040;-76
2022/04/08 03:50:29;;;;;;;27.35;4.05;;;6.40;99.90;;;;;;5015385;28;20040;-75
2022/04/08 03:52:55;;;;;;;33.10;4.50;;;6.50;99.90;;;;;;5017854;28;20026;-75
2022/04/08 03:55:20;;;;;;;39.75;4.70;;;6.40;99.90;;;;;;5015687;28;20026;-74
2022/04/08 03:57:47;;;;;;;33.38;3.90;;;6.40;99.90;;;;;;5014821;28;20052;-75
2022/04/08 04:00:13;;;;;;;33.17;3.38;;;6.40;99.90;;;;;;5015042;28;20056;-75
2022/04/08 04:02:38;;;;;;;45.22;4.40;;;6.50;99.90;;;;;;5014967;28;20428;-74
2022/04/08 04:05:04;;;;;;;31.20;4.03;;;6.50;99.90;;;;;;5014969;28;20105;-73
2022/04/08 04:07:32;;;;;;;50.85;4.88;;;6.50;99.90;;;;;;5015214;28;20026;-74
2022/04/08 04:09:59;;;;;;;26.13;4.10;;;6.50;99.90;;;;;;5014801;28;20030;-74
2022/04/08 04:12:26;;;;;;;46.55;4.40;;;6.50;99.90;;;;;;5013980;28;20062;-73
2022/04/08 04:14:52;;;;;;;39.53;4.55;;;6.50;99.90;;;;;;5014599;28;20486;-73
2022/04/08 04:17:19;;;;;;;31.58;4.25;;;6.50;99.90;;;;;;5014403;28;20108;-73
2022/04/08 04:19:44;;;;;;;38.80;4.35;;;6.50;99.90;;;;;;5014557;28;20026;-73
2022/04/08 04:22:10;;;;;;;32.58;4.53;;;6.50;99.90;;;;;;5014716;28;20092;-75
2022/04/08 04:24:35;;;;;;;47.13;5.03;;;6.50;99.90;;;;;;5014483;28;20438;-74
2022/04/08 04:27:01;;;;;;;35.88;4.75;;;6.50;99.90;;;;;;5014180;28;20073;-73
2022/04/08 04:29:26;;;;;;;27.90;3.47;;;6.60;99.90;;;;;;5014299;28;20117;-74
2022/04/08 04:31:55;;;;;;;49.40;5.47;;;6.60;99.90;;;;;;5014524;28;20089;-73
2022/04/08 04:34:22;;;;;;;29.95;3.83;;;6.60;99.90;;;;;;5014661;28;20022;-73
2022/04/08 04:36:47;;;;;;;31.63;3.70;;;6.50;99.90;;;;;;5012608;28;20042;-75
2022/04/08 04:39:13;;;;;;;34.90;4.13;;;6.50;99.90;;;;;;5014276;28;20034;-74
2022/04/08 04:41:38;;;;;;;28.80;3.70;;;6.40;99.90;;;;;;5014368;28;20101;-75
2022/04/08 04:44:04;;;;;;;27.73;3.35;;;6.40;99.90;;;;;;5014058;28;20113;-75
2022/04/08 04:46:30;;;;;;;33.92;3.88;;;6.20;99.90;;;;;;5013983;28;20029;-74
2022/04/08 04:48:55;;;;;;;19.27;2.50;;;6.20;99.90;;;;;;5014362;28;20033;-75
2022/04/08 04:51:21;;;;;;;26.48;2.67;;;6.10;99.90;;;;;;5014604;28;20029;-74
2022/04/08 04:53:46;;;;;;;31.58;4.13;;;6.00;99.90;;;;;;5014608;28;20025;-73
2022/04/08 04:56:12;;;;;;;35.58;2.90;;;5.90;99.90;;;;;;5015504;28;20037;-75
2022/04/08 04:58:37;;;;;;;28.48;3.30;;;5.80;99.90;;;;;;5016249;28;20057;-74
2022/04/08 05:01:03;;;;;;;24.10;3.17;;;5.80;99.90;;;;;;5016178;28;20075;-73
2022/04/08 05:03:28;;;;;;;30.02;3.08;;;5.70;99.90;;;;;;5013768;28;20026;-73
2022/04/08 05:05:54;;;;;;;25.65;2.85;;;;;;;;;;5013695;28;20022;-75
2022/04/08 05:08:20;;;;;;;32.65;3.90;;;5.90;99.90;;;;;;5014617;28;20478;-74
2022/04/08 05:10:46;;;;;;;25.60;3.42;;;5.80;99.90;;;;;;5014408;28;20446;-75
2022/04/08 05:13:12;;;;;;;30.65;3.55;;;5.80;99.90;;;;;;5017305;28;20053;-73
2022/04/08 05:15:42;;;;;;;24.67;3.28;;;5.70;99.90;;;;;;5016293;28;20018;-77
2022/04/08 05:18:11;;;;;;;24.88;3.55;;;5.70;99.90;;;;;;5014014;28;20092;-75
2022/04/08 05:20:36;;;;;;;30.50;3.55;;;5.50;99.90;;;;;;5013940;28;20033;-74
2022/04/08 05:23:02;;;;;;;31.52;3.88;;;5.60;99.90;;;;;;5013727;28;20030;-73
2022/04/08 05:25:28;;;;;;;28.30;3.17;;;5.60;99.90;;;;;;5014795;28;20533;-74
2022/04/08 05:27:54;;;;;;;25.65;4.22;;;5.60;99.90;;;;;;5013645;28;20022;-72
2022/04/08 05:30:20;;;;;;;26.98;3.42;;;5.50;99.90;;;;;;5014117;28;20018;-75
2022/04/08 05:32:46;;;;;;;26.08;3.53;;;5.70;99.90;;;;;;5013954;28;20026;-73
2022/04/08 05:35:16;;;;;;;38.75;4.90;;;5.70;99.90;;;;;;5014019;28;20494;-74
2022/04/08 05:37:44;;;;;;;39.13;3.85;;;5.70;99.90;;;;;;5015084;28;20479;-75
2022/04/08 05:40:15;;;;;;;32.55;3.47;;;5.70;99.90;;;;;;5018928;28;20053;-72
2022/04/08 05:42:42;;;;;;;36.13;4.75;;;5.70;99.90;;;;;;5018724;28;20104;-73
2022/04/08 05:45:09;;;;;;;35.33;3.83;;;5.70;99.90;;;;;;5020418;28;20081;-75
2022/04/08 05:47:35;;;;;;;26.90;3.60;;;5.70;99.90;;;;;;5022582;28;20029;-73
2022/04/08 05:50:00;;;;;;;36.20;3.72;;;5.70;99.90;;;;;;5021736;28;20088;-75
2022/04/08 05:52:26;;;;;;;32.85;4.32;;;5.80;99.90;;;;;;5018651;28;20030;-73
2022/04/08 05:54:52;;;;;;;32.42;3.25;;;5.80;99.90;;;;;;5013293;28;20057;-76
2022/04/08 05:57:21;;;;;;;29.65;4.50;;;5.80;99.90;;;;;;5012863;28;20041;-74
2022/04/08 05:59:48;;;;;;;28.55;3.95;;;;;;;;;;5012004;28;20022;-74
2022/04/08 06:02:14;;;;;;;34.28;3.22;;;5.80;99.90;;;;;;5013189;28;20112;-73
2022/04/08 06:04:40;;;;;;;30.67;3.65;;;5.80;99.90;;;;;;5013025;28;20072;-73
2022/04/08 06:07:05;;;;;;;21.20;3.28;;;5.80;99.90;;;;;;5012144;28;20088;-76
2022/04/08 06:09:32;;;;;;;36.03;3.67;;;5.70;99.90;;;;;;5012621;28;20065;-74
2022/04/08 06:11:59;;;;;;;29.00;3.22;;;5.70;99.90;;;;;;5012859;28;20022;-74
2022/04/08 06:14:26;;;;;;;35.30;3.97;;;5.70;99.90;;;;;;5012850;28;20422;-73
2022/04/08 06:16:52;;;;;;;27.77;3.78;;;5.70;99.90;;;;;;5011995;28;20048;-74
2022/04/08 06:19:17;;;;;;;32.78;4.00;;;5.70;99.90;;;;;;5012699;28;20487;-75
2022/04/08 06:21:43;;;;;;;25.30;4.38;;;5.80;99.90;;;;;;5013428;28;20030;-75
2022/04/08 06:24:08;;;;;;;26.95;3.72;;;5.90;99.90;;;;;;5013355;28;20293;-73
2022/04/08 06:26:36;;;;;;;30.67;3.42;;;5.90;99.90;;;;;;5012911;28;20590;-74
2022/04/08 06:29:02;;;;;;;24.42;3.28;;;6.00;99.90;;;;;;5013278;28;20031;-75
2022/04/08 06:31:29;;;;;;;33.70;3.80;;;6.00;99.90;;;;;;5015291;28;20022;-74
2022/04/08 06:33:57;;;;;;;29.13;3.33;;;6.00;99.90;;;;;;5013869;28;20014;-74
2022/04/08 06:36:22;;;;;;;31.48;3.30;;;6.10;99.90;;;;;;5012847;28;20030;-76
2022/04/08 06:38:48;;;;;;;25.17;3.58;;;6.10;99.90;;;;;;5013269;28;20382;-75
2022/04/08 06:41:14;;;;;;;31.17;3.63;;;6.10;99.90;;;;;;5013448;28;20386;-74
2022/04/08 06:43:39;;;;;;;31.27;3.92;;;6.10;99.90;;;;;;5012359;28;20022;-74
2022/04/08 06:46:05;;;;;;;25.33;3.20;;;6.20;99.90;;;;;;5012052;28;20527;-75
2022/04/08 06:48:31;;;;;;;23.77;2.97;;;6.30;99.90;;;;;;5012378;28;20058;-76
2022/04/08 06:50:58;;;;;;;25.38;3.67;;;6.30;99.90;;;;;;5013015;28;20045;-75
2022/04/08 06:53:24;;;;;;;27.52;3.17;;;6.30;99.90;;;;;;5012576;28;20104;-75
2022/04/08 06:55:50;;;;;;;29.25;3.67;;;6.40;99.90;;;;;;5012020;28;20053;-75
2022/04/08 06:58:15;;;;;;;25.58;2.95;;;6.40;99.90;;;;;;5012782;28;20034;-76
2022/04/08 07:00:41;;;;;;;23.17;2.72;;;6.40;99.90;;;;;;5013027;28;20038;-75
2022/04/08 07:03:06;;;;;;;28.35;3.00;;;6.40;99.90;;;;;;5012950;28;20034;-76
2022/04/08 07:05:32;;;;;;;26.85;2.50;;;6.50;99.90;;;;;;5012967;28;20066;-76
2022/04/08 07:07:58;;;;;;;29.08;2.90;;;6.60;99.90;;;;;;5017173;28;20054;-76
2022/04/08 07:10:24;;;;;;;23.75;3.63;;;6.70;99.90;;;;;;5015401;28;20509;-77
2022/04/08 07:12:49;;;;;;;22.70;3.03;;;6.80;99.90;;;;;;5017388;28;20026;-75
2022/04/08 07:15:15;;;;;;;19.17;2.58;;;6.90;99.90;;;;;;5017798;28;20049;-77
2022/04/08 07:17:42;;;;;;;21.40;2.67;;;6.90;99.90;;;;;;5015916;28;20030;-75
2022/04/08 07:20:07;;;;;;;19.65;2.80;;;6.90;99.90;;;;;;5015730;28;20056;-76
2022/04/08 07:22:34;;;;;;;21.92;2.72;;;7.00;99.90;;;;;;5017711;28;20026;-75
2022/04/08 07:24:59;;;;;;;15.23;3.22;;;7.00;99.90;;;;;;5018774;28;20022;-76
2022/04/08 07:27:25;;;;;;;26.05;3.60;;;7.10;99.90;;;;;;5016755;28;20427;-75
2022/04/08 07:29:51;;;;;;;16.92;2.45;;;7.20;99.90;;;;;;5016818;28;20030;-76
2022/04/08 07:32:20;;;;;;;15.65;2.08;;;7.10;99.90;;;;;;5017093;28;20030;-75
2022/04/08 07:34:51;;;;;;;17.48;2.42;;;7.10;99.90;;;;;;5015179;28;20112;-77
2022/04/08 07:37:35;;;;;;;15.52;2.63;;;7.00;99.90;;;;;;5016401;28;20498;-75
2022/04/08 07:40:01;;;;;;;11.00;1.35;;;7.10;99.90;;;;;;5017403;28;20052;-76
2022/04/08 07:42:26;;;;;;;15.48;2.05;;;7.10;99.90;;;;;;5016788;28;20030;-75
2022/04/08 07:44:52;;;;;;;13.10;2.28;;;7.20;99.90;;;;;;5014417;28;20508;-77
2022/04/08 07:47:20;;;;;;;15.32;2.30;;;7.10;99.90;;;;;;5015395;28;20033;-75
2022/04/08 07:49:46;;;;;;;19.75;3.03;;;7.10;99.90;;;;;;5015783;28;20115;-76
2022/04/08 07:52:11;;;;;;;19.40;2.20;;;7.20;99.90;;;;;;5014997;28;20030;-76
2022/04/08 07:54:37;;;;;;;13.93;1.80;;;7.20;99.90;;;;;;5015847;28;20101;-76
2022/04/08 07:57:03;;;;;;;17.38;2.50;;;7.30;99.90;;;;;;5020140;28;20018;-77
2022/04/08 07:59:28;;;;;;;7.32;1.60;;;7.30;99.90;;;;;;5017145;28;20034;-76
2022/04/08 08:01:54;;;;;;;8.75;1.48;;;7.50;99.90;;;;;;5016583;28;20069;-74
2022/04/08 08:04:19;;;;;;;9.45;1.73;;;7.40;99.90;;;;;;5015566;28;20030;-76
2022/04/08 08:06:45;;;;;;;14.32;1.67;;;7.30;99.90;;;;;;5015547;28;20034;-78
2022/04/08 08:09:11;;;;;;;16.02;1.98;;;7.40;99.90;;;;;;5014022;28;20022;-75
2022/04/08 08:11:36;;;;;;;11.65;1.98;;;7.30;99.90;;;;;;5015678;28;20447;-75
2022/04/08 08:14:02;;;;;;;10.10;1.80;;;7.20;99.90;;;;;;5014104;28;20022;-75
2022/04/08 08:16:27;;;;;;;13.82;1.88;;;7.30;99.90;;;;;;5016203;28;20044;-75
2022/04/08 08:18:56;;;;;;;13.27;2.10;;;7.50;99.90;;;;;;5015651;28;20101;-76
2022/04/08 08:21:23;;;;;;;13.00;2.35;;;7.60;99.90;;;;;;5015382;28;20037;-74
2022/04/08 08:23:48;;;;;;;15.65;2.45;;;7.70;99.90;;;;;;5020634;28;20379;-75
2022/04/08 08:26:14;;;;;;;13.23;2.30;;;7.80;99.90;;;;;;5021100;28;20026;-77
2022/04/08 08:28:39;;;;;;;16.35;2.58;;;7.80;99.90;;;;;;5016586;28;20032;-75
2022/04/08 08:31:05;;;;;;;16.67;2.30;;;8.00;99.90;;;;;;5028041;28;20064;-75
2022/04/08 08:33:30;;;;;;;20.20;2.60;;;8.00;99.90;;;;;;5022846;28;20180;-77
2022/04/08 08:35:56;;;;;;;12.48;2.08;;;8.00;99.90;;;;;;5022384;28;20064;-75
2022/04/08 08:38:22;;;;;;;13.15;2.10;;;8.10;99.90;;;;;;5022526;28;20032;-76
2022/04/08 08:40:48;;;;;;;14.63;2.00;;;8.20;99.90;;;;;;5023205;28;20061;-74
2022/04/08 08:43:17;;;;;;;13.60;1.95;;;8.40;99.90;;;;;;5020381;28;20084;-74
2022/04/08 08:45:49;;;;;;;18.40;2.45;;;8.50;99.90;;;;;;5017774;28;20028;-75
2022/04/08 08:48:16;;;;;;;10.60;1.90;;;8.50;99.90;;;;;;5016855;28;20072;-73
2022/04/08 08:50:47;;;;;;;23.88;3.17;;;8.60;99.90;;;;;;5020845;28;20079;-74
2022/04/08 08:53:16;;;;;;;14.27;2.40;;;8.60;99.90;;;;;;5016390;28;20033;-74
2022/04/08 08:55:42;;;;;;;13.68;2.30;;;8.70;99.90;;;;;;5024144;28;20133;-75
2022/04/08 08:58:08;;;;;;;15.75;2.00;;;8.80;99.90;;;;;;5013941;28;20495;-72
2022/04/08 09:00:35;;;;;;;15.93;2.25;;;8.70;99.90;;;;;;5014397;28;20030;-74
2022/04/08 09:03:03;;;;;;;12.20;1.90;;;8.90;99.90;;;;;;5014296;28;20045;-72
2022/04/08 09:05:28;;;;;;;11.88;1.83;;;9.00;99.90;;;;;;5013919;28;20049;-74
2022/04/08 09:07:59;;;;;;;17.70;2.47;;;8.90;99.90;;;;;;5014012;28;20121;-75
2022/04/08 09:10:31;;;;;;;14.32;1.95;;;9.10;99.90;;;;;;5014300;28;20028;-73
2022/04/08 09:12:57;;;;;;;18.80;2.33;;;9.50;99.90;;;;;;5013805;28;20105;-75
2022/04/08 09:15:23;;;;;;;16.00;2.00;;;9.50;99.90;;;;;;5012152;28;20025;-73
2022/04/08 09:17:50;;;;;;;20.15;2.80;;;9.70;99.90;;;;;;5014133;28;20018;-74
2022/04/08 09:20:15;;;;;;;14.07;1.92;;;9.60;99.90;;;;;;5013711;28;20128;-74
2022/04/08 09:22:42;;;;;;;13.30;1.70;;;9.70;99.90;;;;;;5013869;28;20061;-75
2022/04/08 09:25:10;;;;;;;14.82;1.92;;;9.70;99.90;;;;;;5014749;28;20109;-75
2022/04/08 09:27:37;;;;;;;14.07;2.15;;;9.70;99.90;;;;;;5027754;28;20022;-74
2022/04/08 09:30:03;;;;;;;12.82;2.30;;;9.90;99.90;;;;;;5024363;28;20050;-74
2022/04/08 09:32:28;;;;;;;13.07;2.63;;;10.30;99.90;;;;;;5015706;28;20098;-73
2022/04/08 09:34:54;;;;;;;14.73;2.10;;;10.50;99.90;;;;;;5013851;28;20100;-74
2022/04/08 09:37:19;;;;;;;17.17;2.17;;;10.60;99.90;;;;;;5013651;28;20030;-74
2022/04/08 09:40:00;;;;;;;8.57;1.75;;;10.40;99.90;;;;;;5013415;28;20036;-74
2022/04/08 09:42:41;;;;;;;14.40;2.38;;;10.70;99.90;;;;;;5013364;28;20434;-73
2022/04/08 09:45:09;;;;;;;15.20;2.28;;;10.80;99.90;;;;;;5012972;28;20201;-74
2022/04/08 09:47:34;;;;;;;10.82;1.77;;;10.60;99.90;;;;;;5013389;28;20076;-76
2022/04/08 09:50:00;;;;;;;11.75;1.85;;;10.60;99.90;;;;;;5013658;28;20416;-75
2022/04/08 09:52:26;;;;;;;12.45;1.95;;;10.50;99.90;;;;;;5013866;28;20100;-75
2022/04/08 09:54:53;;;;;;;19.58;2.65;;;10.10;99.90;;;;;;5013518;28;20088;-74
2022/04/08 09:57:19;;;;;;;8.60;2.13;;;10.20;99.90;;;;;;5013256;28;20029;-75
2022/04/08 09:59:47;;;;;;;10.73;2.08;;;10.30;99.90;;;;;;5013171;28;20381;-75
2022/04/08 10:02:15;;;;;;;16.42;2.40;;;10.50;99.90;;;;;;5013412;28;20022;-75
2022/04/08 10:04:42;;;;;;;16.95;2.53;;;10.60;99.90;;;;;;5013110;28;20028;-76
2022/04/08 10:07:08;;;;;;;10.90;1.80;;;10.70;99.90;;;;;;5014178;28;20026;-74
2022/04/08 10:09:41;;;;;;;12.05;1.77;;;10.80;99.90;;;;;;5014054;28;20083;-74
2022/04/08 10:12:15;;;;;;;13.52;2.00;;;10.50;99.90;;;;;;5013546;28;20506;-74
2022/04/08 10:14:49;;;;;;;12.13;1.92;;;10.50;99.90;;;;;;5013050;28;20642;-74
2022/04/08 10:17:15;;;;;;;8.13;1.85;;;10.40;99.90;;;;;;5012289;28;20673;-73
2022/04/08 10:19:40;;;;;;;9.35;1.80;;;10.50;99.90;;;;;;5011326;28;20040;-73
2022/04/08 10:22:16;;;;;;;6.80;1.30;;;10.70;99.90;;;;;;5012557;28;20399;-74
2022/04/08 10:24:54;;;;;;;12.02;2.05;;;10.60;99.90;;;;;;5011823;28;20554;-75
2022/04/08 10:27:36;;;;;;;15.18;2.08;;;10.30;99.90;;;;;;5012393;28;20037;-75
2022/04/08 10:30:14;;;;;;;9.07;1.50;;;10.20;99.90;;;;;;5012211;28;20022;-75
2022/04/08 10:32:41;;;;;;;14.07;1.95;;;10.10;99.90;;;;;;5012656;28;20022;-73
2022/04/08 10:35:20;;;;;;;10.68;1.90;;;10.30;99.90;;;;;;5012332;28;20060;-74
2022/04/08 10:38:03;;;;;;;11.93;1.75;;;10.40;99.90;;;;;;5011456;28;20028;-75
2022/04/08 10:40:37;;;;;;;13.88;1.83;;;10.60;99.90;;;;;;5012208;28;20491;-74
2022/04/08 10:43:07;;;;;;;7.20;1.58;;;10.90;99.90;;;;;;5012187;28;20026;-74
2022/04/08 10:45:34;;;;;;;11.55;1.80;;;11.00;99.90;;;;;;5010598;28;20037;-75
2022/04/08 10:48:13;;;;;;;9.77;1.98;;;11.10;99.90;;;;;;5012401;28;20050;-75
2022/04/08 10:50:40;;;;;;;7.28;1.58;;;11.20;99.90;;;;;;5012248;28;20022;-75
2022/04/08 10:53:07;;;;;;;8.38;1.50;;;11.20;99.90;;;;;;5012453;28;20029;-73
2022/04/08 10:55:48;;;;;;;5.68;1.38;;;11.30;99.90;;;;;;5012405;28;20085;-73
2022/04/08 10:58:15;;;;;;;12.43;1.85;;;11.40;99.90;;;;;;5012586;28;20028;-74
2022/04/08 11:00:41;;;;;;;16.05;1.63;;;11.60;99.90;;;;;;5010901;28;20112;-75
2022/04/08 11:03:10;;;;;;;10.93;1.50;;;11.70;99.90;;;;;;5012092;28;20037;-75
2022/04/08 11:05:39;;;;;;;12.57;1.85;;;11.80;99.90;;;;;;5012378;28;20185;-75
2022/04/08 11:08:07;;;;;;;8.60;1.27;;;11.50;99.90;;;;;;5013002;28;20427;-74
2022/04/08 11:10:32;;;;;;;7.35;1.88;;;11.40;99.90;;;;;;5012700;28;20600;-73
2022/04/08 11:13:01;;;;;;;10.63;2.10;;;11.40;99.90;;;;;;5012204;28;20025;-76
2022/04/08 11:15:28;;;;;;;9.82;1.73;;;11.80;99.90;;;;;;5011559;28;20026;-75
2022/04/08 11:17:54;;;;;;;10.20;1.77;;;12.30;99.90;;;;;;5012432;28;20374;-75
2022/04/08 11:20:21;;;;;;;8.43;1.58;;;12.60;99.90;;;;;;5012138;28;20157;-74
2022/04/08 11:22:49;;;;;;;11.60;2.17;;;13.00;99.90;;;;;;5010457;28;20034;-75
2022/04/08 11:25:30;;;;;;;12.20;2.53;;;13.40;99.90;;;;;;5011867;28;20403;-74
2022/04/08 11:28:07;;;;;;;8.35;1.50;;;13.50;99.90;;;;;;5017401;28;20026;-73
2022/04/08 11:30:39;;;;;;;14.90;1.77;;;13.50;99.90;;;;;;5018482;28;20069;-73
2022/04/08 11:33:13;;;;;;;9.02;1.80;;;14.40;99.90;;;;;;5020611;28;20105;-75
2022/04/08 11:35:39;;;;;;;7.00;1.75;;;14.30;99.90;;;;;;5018787;28;20022;-75
2022/04/08 11:38:15;;;;;;;11.63;1.73;;;14.60;98.50;;;;;;5018390;28;20033;-75
2022/04/08 11:40:42;;;;;;;4.80;1.38;;;14.80;95.30;;;;;;5013403;28;20034;-73
2022/04/08 11:43:11;;;;;;;9.02;1.45;;;14.60;95.10;;;;;;5012118;28;20022;-76
2022/04/08 11:45:37;;;;;;;5.18;1.65;;;15.20;95.00;;;;;;5011799;28;20029;-74
2022/04/08 11:48:06;;;;;;;8.30;1.48;;;16.00;92.50;;;;;;5011809;28;20030;-76
2022/04/08 11:50:35;;;;;;;12.00;1.90;;;16.80;90.40;;;;;;5012385;28;20124;-74
2022/04/08 11:53:01;;;;;;;5.35;1.35;;;17.10;85.90;;;;;;5018970;28;20121;-74
2022/04/08 11:55:28;;;;;;;11.30;1.40;;;17.30;83.40;;;;;;5036205;28;20056;-74
2022/04/08 11:57:55;;;;;;;9.18;1.45;;;16.30;82.70;;;;;;5037427;28;20048;-75
2022/04/08 12:00:26;;;;;;;10.15;2.03;;;15.30;84.90;;;;;;5016933;28;20021;-75
2022/04/08 12:02:55;;;;;;;7.97;1.63;;;14.30;89.90;;;;;;5014159;28;20030;-75
2022/04/08 12:05:24;;;;;;;18.50;1.73;;;13.60;94.90;;;;;;5014578;28;20037;-73
2022/04/08 12:07:52;;;;;;;8.15;1.70;;;13.40;97.90;;;;;;5015352;28;20121;-74
2022/04/08 12:10:20;;;;;;;13.45;1.55;;;13.10;98.70;;;;;;5015110;28;20102;-75
2022/04/08 12:12:46;;;;;;;14.35;2.30;;;12.60;99.60;;;;;;5015182;28;20113;-74
2022/04/08 12:15:11;;;;;;;8.98;2.10;;;12.10;99.90;;;;;;5016229;28;20068;-73
2022/04/08 12:17:39;;;;;;;10.75;1.85;;;11.90;99.90;;;;;;5019335;28;20018;-75
2022/04/08 12:20:05;;;;;;;11.13;2.40;;;11.80;99.90;;;;;;5020579;28;20408;-74
2022/04/08 12:22:32;;;;;;;19.70;5.43;;;11.70;99.90;;;;;;5017267;28;20029;-75
2022/04/08 12:24:59;;;;;;;9.75;1.95;;;11.50;99.90;;;;;;5013108;28;20189;-75
2022/04/08 12:27:30;;;;;;;6.15;1.42;;;11.40;99.90;;;;;;5014416;28;20563;-73
2022/04/08 12:30:00;;;;;;;9.18;1.85;;;11.30;99.90;;;;;;5013642;28;20117;-73
2022/04/08 12:32:34;;;;;;;6.55;1.55;;;10.70;99.90;;;;;;5014730;28;20502;-74
2022/04/08 12:34:59;;;;;;;3.45;1.00;;;10.40;99.90;;;;;;5014903;28;20022;-76
2022/04/08 12:37:25;;;;;;;9.95;1.92;;;11.30;99.90;;;;;;5014831;28;20208;-74
2022/04/08 12:39:50;;;;;;;4.25;1.20;;;13.30;99.90;;;;;;5014628;28;20030;-74
2022/04/08 12:42:16;;;;;;;6.10;1.27;;;16.10;99.90;;;;;;5014776;28;20033;-74
2022/04/08 12:44:41;;;;;;;3.20;1.00;;;17.50;97.30;;;;;;5014016;28;20117;-74